Time;durP1;ratioP1;P1;durP2;ratioP2;P2;SDS_P1;SDS_P2;PMS_P1;PMS_P2;Temp;Humidity;BMP_temperature;BMP_pressure;BME280_temperature;BME280_humidity;BME280_pressure;Samples;Min_cycle;Max_cycle;Signal;HPM_P1;HPM_P2
2021/04/17 00:01:33;;;;;;;5.42;3.27;;;;;;;3.66;89.47;100799.27;1719486;83;20919;-42
2021/04/17 00:04:03;;;;;;;3.37;3.10;;;;;;;3.64;89.51;100799.22;1719554;82;21062;-42
2021/04/17 00:06:31;;;;;;;4.42;3.20;;;;;;;3.63;89.61;100809.02;1719575;83;21532;-42
2021/04/17 00:09:00;;;;;;;3.55;3.35;;;;;;;3.63;89.77;100810.30;1719478;83;20919;-42
2021/04/17 00:11:27;;;;;;;3.62;3.33;;;;;;;3.66;90.00;100806.95;1719632;83;21558;-41
2021/04/17 00:13:55;;;;;;;4.42;3.52;;;;;;;3.69;89.97;100809.14;1719556;83;21160;-41
2021/04/17 00:16:23;;;;;;;3.60;3.30;;;;;;;3.76;90.14;100805.39;1719910;83;21055;-42
2021/04/17 00:18:50;;;;;;;3.72;3.22;;;;;;;3.83;90.22;100807.20;1720371;83;20943;-41
2021/04/17 00:21:18;;;;;;;3.70;3.40;;;;;;;3.87;90.20;100805.12;1720263;83;21085;-41
2021/04/17 00:23:46;;;;;;;3.50;3.20;;;;;;;3.92;90.24;100807.76;1720312;83;20943;-42
2021/04/17 00:26:14;;;;;;;3.45;3.20;;;;;;;3.97;90.20;100804.44;1720191;82;21386;-42
2021/04/17 00:28:42;;;;;;;3.72;3.08;;;;;;;4.03;90.09;100812.61;1719708;83;21027;-42
2021/04/17 00:31:10;;;;;;;6.97;2.30;;;;;;;4.10;89.83;100805.47;1719766;83;20951;-42
2021/04/17 00:33:38;;;;;;;2.30;2.10;;;;;;;4.10;89.25;100800.75;1719745;83;20960;-42
2021/04/17 00:36:06;;;;;;;3.40;1.75;;;;;;;4.08;88.55;100800.74;1719796;83;20931;-41
2021/04/17 00:38:34;;;;;;;2.95;1.40;;;;;;;4.02;88.16;100807.91;1719818;83;21153;-42
2021/04/17 00:41:04;;;;;;;5.10;1.50;;;;;;;3.98;87.78;100808.72;1719652;83;21066;-41
2021/04/17 00:43:31;;;;;;;3.42;1.47;;;;;;;3.95;87.48;100809.95;1719703;83;20939;-41
2021/04/17 00:45:59;;;;;;;1.20;1.20;;;;;;;3.91;87.57;100817.13;1719679;83;20943;-42
2021/04/17 00:48:26;;;;;;;1.40;1.40;;;;;;;3.87;87.37;100815.37;1719836;83;21046;-40
2021/04/17 00:50:56;;;;;;;1.72;1.55;;;;;;;3.81;87.12;100817.84;1719780;83;21093;-41
2021/04/17 00:53:23;;;;;;;2.45;1.12;;;;;;;3.74;86.97;100812.63;1719717;83;21053;-43
2021/04/17 00:55:52;;;;;;;2.08;1.12;;;;;;;3.71;87.01;100825.39;1719688;83;20939;-41
2021/04/17 00:58:20;;;;;;;1.27;1.17;;;;;;;3.64;86.95;100820.98;1719763;83;20951;-41
2021/04/17 01:00:47;;;;;;;1.47;1.37;;;;;;;3.54;86.59;100820.41;1719826;83;21014;-42
2021/04/17 01:03:26;;;;;;;10.65;1.45;;;;;;;3.42;86.51;100814.27;1719826;83;21375;-42
2021/04/17 01:05:56;;;;;;;17.37;1.98;;;;;;;3.33;86.59;100820.48;1719786;83;21611;-41
2021/04/17 01:08:35;;;;;;;9.85;1.57;;;;;;;3.21;86.35;100824.13;1719795;83;21057;-41
2021/04/17 01:11:07;;;;;;;7.35;1.10;;;;;;;3.11;86.35;100823.09;1703695;83;21054;-41
2021/04/17 01:13:35;;;;;;;0.82;0.80;;;;;;;2.99;86.13;100827.13;1719867;83;21544;-41
2021/04/17 01:16:04;;;;;;;1.32;0.85;;;;;;;2.88;86.18;100820.53;1691815;83;21207;-42
2021/04/17 01:18:32;;;;;;;29.30;2.67;;;;;;;2.79;86.28;100824.20;1716041;83;21100;-42
2021/04/17 01:21:00;;;;;;;16.32;1.87;;;;;;;2.70;86.33;100827.44;1716154;82;20960;-41
2021/04/17 01:23:44;;;;;;;9.73;1.30;;;;;;;2.58;86.43;100829.77;1716185;83;21132;-42
2021/04/17 01:26:19;;;;;;;3.58;1.27;;;;;;;2.46;86.77;100823.10;1716127;82;20895;-42
2021/04/17 01:28:50;;;;;;;3.58;1.40;;;;;;;2.39;87.42;100826.81;1716128;83;21451;-41
2021/04/17 01:31:20;;;;;;;3.98;1.35;;;;;;;2.34;87.60;100823.70;1716163;82;21615;-41
2021/04/17 01:33:51;;;;;;;3.67;1.40;;;;;;;2.27;87.85;100823.58;1716240;83;21596;-41
2021/04/17 01:36:19;;;;;;;16.77;1.72;;;;;;;2.21;88.04;100826.02;1716064;83;21039;-41
2021/04/17 01:38:56;;;;;;;6.03;1.77;;;;;;;2.15;88.30;100830.99;1716161;83;21113;-41
2021/04/17 01:41:33;;;;;;;5.17;1.60;;;;;;;2.10;88.38;100835.11;1716116;83;21208;-41
2021/04/17 01:44:04;;;;;;;4.33;1.47;;;;;;;2.03;88.50;100839.24;1716141;83;21066;-41
2021/04/17 01:46:34;;;;;;;1.70;1.57;;;;;;;1.95;88.61;100837.78;1716074;83;20903;-40
2021/04/17 01:49:04;;;;;;;2.65;1.80;;;;;;;1.88;88.73;100839.72;1716178;83;21599;-42
2021/04/17 01:51:33;;;;;;;4.58;2.75;;;;;;;1.80;89.09;100834.86;1716174;83;21600;-41
2021/04/17 01:54:04;;;;;;;14.90;4.12;;;;;;;1.79;89.49;100840.39;1716135;83;21209;-41
2021/04/17 01:56:31;;;;;;;15.50;3.83;;;;;;;1.86;90.23;100836.27;1716034;83;21084;-41
2021/04/17 01:58:59;;;;;;;4.53;2.77;;;;;;;1.97;90.46;100827.59;1716100;83;20963;-41
2021/04/17 02:01:27;;;;;;;2.83;2.70;;;;;;;2.07;90.43;100835.05;1716001;83;21042;-41
2021/04/17 02:03:55;;;;;;;2.90;2.65;;;;;;;2.12;90.35;100830.50;1716191;83;20975;-41
2021/04/17 02:06:22;;;;;;;2.80;2.70;;;;;;;2.17;90.32;100830.61;1716136;83;21439;-41
2021/04/17 02:08:51;;;;;;;2.42;2.33;;;;;;;2.23;90.30;100833.30;1716051;83;21046;-41
2021/04/17 02:11:19;;;;;;;2.37;2.12;;;;;;;2.30;90.24;100831.74;1716091;83;21014;-41
2021/04/17 02:13:47;;;;;;;2.50;2.40;;;;;;;2.35;90.23;100826.31;1716050;83;20971;-42
2021/04/17 02:16:18;;;;;;;2.40;2.30;;;;;;;2.40;90.26;100830.22;1713243;82;20979;-42
2021/04/17 02:19:01;;;;;;;2.77;2.67;;;;;;;2.46;90.23;100830.77;1706226;83;22256;-42
2021/04/17 02:21:44;;;;;;;2.20;2.10;;;;;;;2.52;90.10;100843.27;1706133;82;20959;-42
2021/04/17 02:24:11;;;;;;;2.00;1.90;;;;;;;2.57;90.00;100840.39;1706156;83;21051;-41
2021/04/17 02:26:39;;;;;;;2.25;2.15;;;;;;;2.63;89.93;100832.39;1706104;82;20952;-42
2021/04/17 02:29:07;;;;;;;2.52;2.30;;;;;;;2.64;89.82;100831.55;1706200;84;21031;-43
2021/04/17 02:31:35;;;;;;;2.75;2.55;;;;;;;2.65;89.70;100843.51;1706198;84;21223;-42
2021/04/17 02:34:03;;;;;;;1.90;1.80;;;;;;;2.65;89.69;100847.34;1706095;84;21043;-42
2021/04/17 02:36:31;;;;;;;2.30;2.10;;;;;;;2.67;89.70;100848.27;1706106;84;21015;-42
2021/04/17 02:38:58;;;;;;;1.85;1.82;;;;;;;2.70;89.72;100848.33;1706223;84;21497;-42
2021/04/17 02:41:26;;;;;;;2.02;1.92;;;;;;;2.75;89.69;100845.84;1706179;84;21015;-41
2021/04/17 02:43:54;;;;;;;2.00;1.90;;;;;;;2.77;89.66;100854.00;1706133;84;21381;-42
2021/04/17 02:46:23;;;;;;;2.05;1.95;;;;;;;2.81;89.53;100855.78;1706024;84;21038;-42
2021/04/17 02:48:52;;;;;;;2.22;2.12;;;;;;;2.84;89.47;100854.55;1706162;82;20960;-41
2021/04/17 02:51:20;;;;;;;3.52;2.40;;;;;;;2.90;89.46;100858.94;1706231;83;20963;-42
2021/04/17 02:53:48;;;;;;;2.15;2.05;;;;;;;2.94;89.38;100856.88;1706198;84;21000;-42
2021/04/17 02:56:16;;;;;;;2.62;2.42;;;;;;;2.97;89.29;100858.65;1706202;84;21399;-41
2021/04/17 02:58:44;;;;;;;1.82;1.72;;;;;;;2.99;89.19;100860.39;1706169;82;20963;-42
2021/04/17 03:01:12;;;;;;;2.40;2.30;;;;;;;3.03;89.11;100865.16;1706164;84;20951;-40
2021/04/17 03:03:41;;;;;;;2.30;2.20;;;;;;;3.06;89.03;100862.66;1706221;83;21512;-41
2021/04/17 03:06:09;;;;;;;2.30;2.20;;;;;;;3.09;88.95;100865.27;1706195;84;20972;-42
2021/04/17 03:08:37;;;;;;;2.75;2.55;;;;;;;3.12;88.96;100869.16;1706098;84;21212;-41
2021/04/17 03:11:04;;;;;;;3.47;2.40;;;;;;;3.17;88.96;100864.14;1706084;83;21031;-41
2021/04/17 03:13:32;;;;;;;2.02;1.92;;;;;;;3.24;88.92;100871.52;1706215;84;21014;-41
2021/04/17 03:16:00;;;;;;;2.00;1.90;;;;;;;3.26;88.87;100869.41;1706698;83;21070;-41
2021/04/17 03:18:28;;;;;;;2.98;2.67;;;;;;;3.31;88.80;100877.18;1693324;83;20919;-41
2021/04/17 03:20:56;;;;;;;3.58;2.40;;;;;;;3.33;88.75;100874.23;1719664;83;21344;-41
2021/04/17 03:23:24;;;;;;;2.02;1.92;;;;;;;3.38;88.67;100876.88;1719663;83;21043;-40
2021/04/17 03:25:51;;;;;;;2.52;2.10;;;;;;;3.41;88.57;100877.81;1719660;82;20987;-41
2021/04/17 03:28:19;;;;;;;3.10;2.30;;;;;;;3.49;88.54;100877.92;1719636;83;20939;-41
2021/04/17 03:30:47;;;;;;;2.30;2.20;;;;;;;3.49;88.54;100877.92;1719648;83;21007;-41
2021/04/17 03:33:15;;;;;;;2.83;2.62;;;;;;;3.52;88.46;100877.13;1719623;83;21379;-41
2021/04/17 03:35:43;;;;;;;4.05;2.90;;;;;;;3.56;88.45;100880.17;1719597;83;21042;-41
2021/04/17 03:38:12;;;;;;;4.05;2.50;;;;;;;3.59;88.42;100883.66;1719758;83;21065;-42
2021/04/17 03:40:39;;;;;;;4.97;3.30;;;;;;;3.64;88.49;100882.44;1719634;83;20998;-41
2021/04/17 03:43:07;;;;;;;3.85;3.35;;;;;;;3.67;88.50;100884.20;1719701;83;20999;-41
2021/04/17 03:45:35;;;;;;;4.72;3.20;;;;;;;3.71;88.51;100888.53;1719750;83;21392;-41
2021/04/17 03:48:04;;;;;;;3.40;3.10;;;;;;;3.74;88.50;100885.62;1719581;83;21987;-41
2021/04/17 03:50:32;;;;;;;3.02;2.80;;;;;;;3.79;88.51;100886.11;1719654;83;21039;-42
2021/04/17 03:53:00;;;;;;;3.70;3.10;;;;;;;3.84;88.46;100890.48;1719664;83;21476;-42
2021/04/17 03:55:28;;;;;;;4.03;3.72;;;;;;;3.87;88.53;100893.48;1719647;82;20955;-41
2021/04/17 03:57:55;;;;;;;3.52;3.27;;;;;;;3.89;88.55;100900.77;1719709;83;21221;-42
2021/04/17 04:00:23;;;;;;;5.85;3.67;;;;;;;3.91;88.60;100903.38;1719631;83;20971;-42
2021/04/17 04:02:51;;;;;;;6.65;4.12;;;;;;;3.93;88.66;100905.14;1719742;83;21006;-41
2021/04/17 04:05:18;;;;;;;3.98;3.65;;;;;;;3.96;88.82;100905.18;1719851;82;21038;-41
2021/04/17 04:07:48;;;;;;;4.05;3.75;;;;;;;3.97;88.90;100903.47;1719755;82;21471;-41
2021/04/17 04:10:16;;;;;;;4.58;4.00;;;;;;;3.98;88.98;100906.06;1719775;83;21207;-42
2021/04/17 04:12:44;;;;;;;4.20;3.92;;;;;;;3.98;89.19;100908.63;1719714;83;21050;-41
2021/04/17 04:15:13;;;;;;;5.35;4.85;;;;;;;4.00;89.28;100908.64;1693022;83;20994;-41
2021/04/17 04:17:41;;;;;;;4.83;4.20;;;;;;;4.05;89.35;100912.56;1711395;83;20901;-41
2021/04/17 04:20:11;;;;;;;6.47;5.05;;;;;;;4.07;89.53;100914.73;1706329;84;20948;-41
2021/04/17 04:22:38;;;;;;;4.72;4.42;;;;;;;4.07;89.66;100922.01;1706272;82;21381;-42
2021/04/17 04:25:08;;;;;;;5.83;4.83;;;;;;;4.07;89.79;100921.13;1706127;82;21004;-42
2021/04/17 04:27:37;;;;;;;5.00;4.47;;;;;;;4.06;89.83;100921.97;1706244;84;21019;-41
2021/04/17 04:30:10;;;;;;;4.60;4.25;;;;;;;4.08;89.97;100919.02;1706147;84;20987;-41
2021/04/17 04:32:37;;;;;;;5.25;4.75;;;;;;;4.10;90.07;100923.73;1706293;84;20952;-41
2021/04/17 04:35:07;;;;;;;5.25;4.85;;;;;;;4.11;90.22;100928.02;1706277;82;21744;-42
2021/04/17 04:37:35;;;;;;;6.90;5.15;;;;;;;4.12;90.34;100933.59;1706154;84;21119;-41
2021/04/17 04:40:06;;;;;;;7.22;5.12;;;;;;;4.13;90.40;100931.06;1706214;84;21011;-42
2021/04/17 04:42:34;;;;;;;4.90;4.50;;;;;;;4.17;90.49;100935.40;1706274;84;21038;-42
2021/04/17 04:45:05;;;;;;;5.47;4.97;;;;;;;4.17;90.61;100936.67;1706216;83;20991;-43
2021/04/17 04:47:33;;;;;;;6.15;5.65;;;;;;;4.17;90.69;100936.67;1706231;83;21205;-41
2021/04/17 04:50:04;;;;;;;6.17;5.55;;;;;;;4.20;90.82;100942.69;1706203;84;21067;-41
2021/04/17 04:52:32;;;;;;;5.25;4.92;;;;;;;4.22;90.88;100950.85;1652846;86;21145;-41
2021/04/17 04:54:59;;;;;;;6.47;5.50;;;;;;;4.24;90.90;100946.61;1653137;86;20972;-41
2021/04/17 04:57:27;;;;;;;5.67;5.22;;;;;;;4.26;90.93;100957.75;1653149;86;21162;-42
2021/04/17 04:59:55;;;;;;;6.70;6.05;;;;;;;4.27;91.05;100951.78;1653134;86;21380;-42
2021/04/17 05:02:22;;;;;;;7.65;6.62;;;;;;;4.33;91.38;100954.87;1653137;86;21115;-41
2021/04/17 05:04:50;;;;;;;6.55;5.90;;;;;;;4.35;91.23;100952.31;1653189;86;21057;-42
2021/04/17 05:07:17;;;;;;;6.70;6.10;;;;;;;4.35;91.23;100952.31;1653174;86;21044;-41
2021/04/17 05:09:45;;;;;;;9.60;6.80;;;;;;;4.37;91.38;100954.47;1653188;86;20980;-42
2021/04/17 05:12:13;;;;;;;8.58;6.70;;;;;;;4.41;91.05;100955.84;1653181;85;22359;-42
2021/04/17 05:14:42;;;;;;;7.42;6.62;;;;;;;4.41;91.05;100955.84;1653069;86;21019;-42
2021/04/17 05:17:10;;;;;;;7.58;6.87;;;;;;;4.45;91.37;100958.88;1653055;85;20999;-42
2021/04/17 05:19:40;;;;;;;11.22;7.45;;;;;;;4.49;91.34;100958.52;1653110;86;21048;-42
2021/04/17 05:22:08;;;;;;;8.25;7.50;;;;;;;4.48;91.47;100959.77;1653220;86;21049;-42
2021/04/17 05:24:37;;;;;;;8.95;7.83;;;;;;;4.52;91.66;100961.12;1653199;86;21158;-42
2021/04/17 05:27:06;;;;;;;9.28;7.42;;;;;;;4.57;91.83;100958.20;1652997;85;21043;-43
2021/04/17 05:29:34;;;;;;;10.40;7.85;;;;;;;4.66;91.96;100961.73;1653168;86;21043;-42
2021/04/17 05:32:02;;;;;;;9.30;8.40;;;;;;;4.71;92.07;100960.95;1653099;86;21063;-42
2021/04/17 05:34:30;;;;;;;9.83;8.48;;;;;;;4.79;92.12;100958.91;1653207;86;20960;-41
2021/04/17 05:36:57;;;;;;;9.75;8.75;;;;;;;4.87;92.23;100954.33;1653176;86;21226;-42
2021/04/17 05:39:26;;;;;;;9.68;8.68;;;;;;;5.00;92.33;100950.66;1653123;86;21079;-42
2021/04/17 05:41:54;;;;;;;10.10;9.10;;;;;;;5.09;92.39;100952.03;1653149;85;21031;-42
2021/04/17 05:44:22;;;;;;;11.95;9.00;;;;;;;5.20;92.34;100956.02;1653164;86;21075;-43
2021/04/17 05:46:50;;;;;;;11.53;10.38;;;;;;;5.28;92.20;100953.11;1653104;86;20988;-43
2021/04/17 05:49:18;;;;;;;14.45;11.25;;;;;;;5.34;92.13;100954.89;1653145;86;21600;-43
2021/04/17 05:51:45;;;;;;;11.80;10.60;;;;;;;5.51;92.11;100961.93;1653098;86;21020;-42
2021/04/17 05:54:14;;;;;;;14.85;11.60;;;;;;;5.51;92.11;100961.93;1653166;86;21023;-43
2021/04/17 05:56:42;;;;;;;16.35;11.25;;;;;;;5.66;91.86;100962.06;1653117;86;20977;-42
2021/04/17 05:59:09;;;;;;;13.85;11.45;;;;;;;5.66;91.86;100962.06;1653140;86;20932;-43
2021/04/17 06:01:38;;;;;;;14.45;12.85;;;;;;;5.64;91.80;100969.34;1653162;86;21374;-43
2021/04/17 06:04:06;;;;;;;17.17;13.88;;;;;;;5.61;91.79;100963.33;1653086;86;21099;-43
2021/04/17 06:06:34;;;;;;;30.50;22.15;;;;;;;5.65;91.84;100962.91;1653149;86;21106;-43
2021/04/17 06:09:04;;;;;;;10.90;9.70;;;;;;;5.63;91.92;100973.59;1653132;86;21024;-43
2021/04/17 06:11:31;;;;;;;12.70;9.88;;;;;;;5.63;91.92;100973.59;1653136;86;21016;-42
2021/04/17 06:13:59;;;;;;;13.85;11.12;;;;;;;5.60;91.79;100970.59;1653200;86;21392;-43
2021/04/17 06:16:27;;;;;;;11.95;10.63;;;;;;;5.66;92.16;100975.34;1653013;86;21056;-43
2021/04/17 06:18:56;;;;;;;10.20;9.20;;;;;;;5.73;92.18;100974.15;1651842;85;21047;-43
2021/04/17 06:21:24;;;;;;;12.25;9.83;;;;;;;5.73;92.18;100974.15;1653113;86;21023;-43
2021/04/17 06:23:51;;;;;;;13.48;9.95;;;;;;;5.77;92.03;100981.44;1653170;86;20972;-43
2021/04/17 06:26:21;;;;;;;13.22;10.38;;;;;;;5.80;92.16;100978.90;1652954;85;21973;-43
2021/04/17 06:28:50;;;;;;;22.02;15.75;;;;;;;5.93;91.94;100990.59;1653148;86;21605;-43
2021/04/17 06:31:18;;;;;;;17.65;11.12;;;;;;;5.93;91.94;100990.59;1653118;86;21369;-42
2021/04/17 06:33:46;;;;;;;10.68;9.53;;;;;;;5.94;91.79;100994.48;1653130;86;20972;-43
2021/04/17 06:36:15;;;;;;;11.97;9.95;;;;;;;5.93;91.89;100996.58;1701071;83;21019;-43
2021/04/17 06:38:43;;;;;;;11.35;9.63;;;;;;;5.98;92.20;100997.51;1706140;83;22102;-43
2021/04/17 06:41:11;;;;;;;10.23;8.83;;;;;;;6.04;91.88;101002.73;1706122;84;20963;-43
2021/04/17 06:43:41;;;;;;;31.65;17.92;;;;;;;6.04;91.88;101002.73;1706179;82;20948;-43
2021/04/17 06:46:12;;;;;;;14.45;11.18;;;;;;;6.06;91.70;101003.17;1706156;84;21158;-43
2021/04/17 06:48:40;;;;;;;23.55;14.45;;;;;;;6.08;91.84;101006.20;1686743;84;20932;-42
2021/04/17 06:51:15;;;;;;;10.18;9.13;;;;;;;6.11;91.46;101013.06;1706104;83;21364;-42
2021/04/17 06:53:42;;;;;;;24.02;15.38;;;;;;;6.09;91.11;101015.63;1706087;84;20971;-42
2021/04/17 06:56:10;;;;;;;15.68;9.90;;;;;;;6.09;91.11;101015.63;1706258;84;21489;-42
2021/04/17 06:58:39;;;;;;;15.55;9.93;;;;;;;6.14;91.57;101016.53;1706145;84;21086;-42
2021/04/17 07:01:07;;;;;;;9.15;8.18;;;;;;;6.18;91.33;101019.97;1706197;84;21573;-43
2021/04/17 07:03:35;;;;;;;11.18;9.05;;;;;;;6.22;91.27;101024.31;1706102;84;21376;-42
2021/04/17 07:06:04;;;;;;;12.07;9.33;;;;;;;6.21;91.13;101028.14;1706080;84;21011;-42
2021/04/17 07:08:31;;;;;;;48.45;25.23;;;;;;;6.19;91.01;101028.15;1706113;82;21015;-42
2021/04/17 07:11:00;;;;;;;12.03;10.03;;;;;;;6.17;90.90;101027.24;1706109;84;20940;-42
2021/04/17 07:13:27;;;;;;;11.73;9.53;;;;;;;6.20;90.90;101028.99;1706173;82;20995;-42
2021/04/17 07:16:07;;;;;;;11.22;9.98;;;;;;;6.24;90.86;101029.05;1706114;84;21374;-42
2021/04/17 07:18:36;;;;;;;12.18;10.00;;;;;;;6.26;90.78;101034.18;1712646;83;21097;-42
2021/04/17 07:21:22;;;;;;;14.73;10.13;;;;;;;6.25;90.52;101027.31;1719609;83;21046;-42
2021/04/17 07:23:50;;;;;;;18.65;13.53;;;;;;;6.29;90.48;101041.92;1719643;83;20963;-42
2021/04/17 07:26:25;;;;;;;11.22;10.00;;;;;;;6.31;90.51;101044.08;1719616;82;21027;-42
2021/04/17 07:29:04;;;;;;;19.90;13.95;;;;;;;6.31;90.50;101045.36;1719663;83;21212;-42
2021/04/17 07:31:33;;;;;;;10.70;9.18;;;;;;;6.36;90.42;101050.14;1719581;83;21038;-43
2021/04/17 07:34:17;;;;;;;12.37;8.88;;;;;;;6.40;90.36;101052.30;1719698;83;21176;-43
2021/04/17 07:36:54;;;;;;;16.87;12.82;;;;;;;6.45;90.28;101059.66;1719660;83;21218;-43
2021/04/17 07:39:40;;;;;;;23.45;14.68;;;;;;;6.52;89.90;101061.42;1719790;83;20951;-44
2021/04/17 07:42:11;;;;;;;11.53;9.23;;;;;;;6.57;89.36;101058.89;1719810;83;21198;-42
2021/04/17 07:44:48;;;;;;;9.23;8.23;;;;;;;6.60;88.98;101056.34;1719852;83;21647;-42
2021/04/17 07:47:32;;;;;;;16.07;10.50;;;;;;;6.64;88.60;101058.48;1719920;83;21587;-43
2021/04/17 07:50:06;;;;;;;10.00;8.05;;;;;;;6.64;87.66;101060.66;1719786;83;21487;-43
2021/04/17 07:52:34;;;;;;;10.10;7.87;;;;;;;6.65;87.20;101063.66;1719781;83;21010;-43
2021/04/17 07:55:09;;;;;;;11.55;9.83;;;;;;;6.63;86.93;101069.62;1719754;82;21209;-42
2021/04/17 07:57:49;;;;;;;11.50;9.40;;;;;;;6.60;86.30;101075.19;1719599;83;21046;-43
2021/04/17 08:00:20;;;;;;;10.38;8.90;;;;;;;6.63;86.61;101078.64;1719392;83;20986;-43
2021/04/17 08:02:53;;;;;;;11.08;8.73;;;;;;;6.65;86.61;101074.36;1719719;83;21014;-43
2021/04/17 08:05:23;;;;;;;10.30;8.65;;;;;;;6.65;86.69;101084.25;1719895;83;21556;-42
2021/04/17 08:07:51;;;;;;;10.75;9.20;;;;;;;6.65;86.45;101085.94;1719812;82;21388;-42
2021/04/17 08:10:20;;;;;;;16.23;9.20;;;;;;;6.67;86.56;101082.54;1719768;83;20920;-42
2021/04/17 08:12:48;;;;;;;11.75;9.23;;;;;;;6.66;86.59;101085.97;1719766;83;21011;-42
2021/04/17 08:15:19;;;;;;;12.98;9.13;;;;;;;6.66;86.56;101087.25;1719831;83;21635;-42
2021/04/17 08:17:49;;;;;;;10.78;8.83;;;;;;;6.66;86.34;101091.11;1719776;83;20943;-42
2021/04/17 08:20:17;;;;;;;9.70;8.55;;;;;;;6.65;86.31;101092.38;1719779;83;21379;-41
2021/04/17 08:22:48;;;;;;;13.62;9.53;;;;;;;6.61;86.14;101089.78;1719651;83;21419;-42
2021/04/17 08:25:20;;;;;;;21.27;12.23;;;;;;;6.60;86.16;101087.21;1693561;83;21317;-42
2021/04/17 08:27:49;;;;;;;11.93;9.70;;;;;;;6.59;86.21;101090.63;1694480;83;21003;-42
2021/04/17 08:30:25;;;;;;;17.25;11.50;;;;;;;6.56;86.50;101092.74;1719768;83;21023;-42
2021/04/17 08:32:53;;;;;;;25.60;14.98;;;;;;;6.51;86.78;101086.70;1719804;83;21348;-42
2021/04/17 08:35:23;;;;;;;16.95;11.30;;;;;;;6.41;87.37;101088.73;1693766;83;21121;-42
2021/04/17 08:37:57;;;;;;;27.85;16.02;;;;;;;6.35;87.55;101090.86;1719774;83;21031;-42
2021/04/17 08:40:47;;;;;;;15.68;10.63;;;;;;;6.33;87.79;101097.25;1719724;83;21050;-42
2021/04/17 08:43:22;;;;;;;22.82;13.22;;;;;;;6.29;88.11;101099.36;1719707;83;21028;-43
2021/04/17 08:45:57;;;;;;;21.77;14.40;;;;;;;6.21;88.39;101100.13;1719707;83;21210;-42
2021/04/17 08:48:43;;;;;;;13.75;9.38;;;;;;;6.19;88.67;101097.56;1719100;83;21559;-42
2021/04/17 08:51:26;;;;;;;15.63;10.00;;;;;;;6.18;88.75;101095.81;1719845;83;27607;-42
2021/04/17 08:54:09;;;;;;;13.70;9.35;;;;;;;6.16;88.75;101096.22;1719736;83;20990;-41
2021/04/17 08:56:52;;;;;;;14.55;10.43;;;;;;;6.16;88.83;101096.22;1719762;83;21094;-42
2021/04/17 08:59:31;;;;;;;13.35;9.40;;;;;;;6.18;88.90;101097.09;1719738;83;21376;-43
2021/04/17 09:02:06;;;;;;;15.90;9.80;;;;;;;6.21;89.08;101093.70;1719658;83;21070;-43
2021/04/17 09:04:37;;;;;;;16.05;10.03;;;;;;;6.21;89.08;101093.70;1719511;83;21078;-43
2021/04/17 09:07:17;;;;;;;15.38;8.80;;;;;;;6.22;88.91;101096.30;1719682;83;20995;-43
2021/04/17 09:09:47;;;;;;;13.78;8.48;;;;;;;6.27;88.87;101098.49;1719715;83;21006;-42
2021/04/17 09:12:19;;;;;;;15.25;9.20;;;;;;;6.32;88.87;101100.67;1719753;83;22465;-43
2021/04/17 09:14:59;;;;;;;12.73;8.78;;;;;;;6.39;88.97;101099.44;1719652;82;21073;-42
2021/04/17 09:17:36;;;;;;;16.00;9.30;;;;;;;6.44;89.04;101101.22;1719715;83;21026;-43
2021/04/17 09:20:12;;;;;;;17.70;9.55;;;;;;;6.54;89.05;101102.16;1719652;83;21011;-44
2021/04/17 09:22:44;;;;;;;22.52;14.28;;;;;;;6.60;89.07;101102.64;1719781;83;21006;-43
2021/04/17 09:25:17;;;;;;;11.95;8.23;;;;;;;6.70;88.79;101101.86;1719645;82;21654;-43
2021/04/17 09:27:47;;;;;;;17.20;10.70;;;;;;;6.72;88.30;101099.31;1713864;83;21050;-43
2021/04/17 09:30:20;;;;;;;16.00;10.70;;;;;;;6.71;87.93;101101.45;1693816;83;21046;-43
2021/04/17 09:32:53;;;;;;;11.93;8.70;;;;;;;6.69;87.80;101098.85;1718406;83;21078;-42
2021/04/17 09:35:31;;;;;;;12.95;9.00;;;;;;;6.68;87.59;101098.83;1719655;83;20940;-43
2021/04/17 09:38:15;;;;;;;10.45;7.90;;;;;;;6.66;87.36;101103.09;1719679;83;21397;-43
2021/04/17 09:40:48;;;;;;;11.25;8.08;;;;;;;6.63;87.10;101104.36;1719750;83;21547;-43
2021/04/17 09:43:28;;;;;;;9.00;7.40;;;;;;;6.58;87.04;101101.33;1719673;83;21058;-43
2021/04/17 09:46:00;;;;;;;11.00;7.80;;;;;;;6.62;87.20;101103.52;1719653;83;20967;-43
2021/04/17 09:48:27;;;;;;;9.25;7.70;;;;;;;6.64;87.07;101104.39;1719740;83;20991;-46
2021/04/17 09:50:56;;;;;;;10.53;8.48;;;;;;;6.65;86.97;101100.09;1693339;83;21221;-42
2021/04/17 09:53:32;;;;;;;9.78;7.83;;;;;;;6.69;86.89;101104.00;1719644;83;21424;-42
2021/04/17 09:56:07;;;;;;;8.88;5.28;;;;;;;6.77;86.89;101101.48;1719785;83;20951;-43
2021/04/17 09:58:40;;;;;;;10.93;7.90;;;;;;;6.87;86.74;101108.41;1719779;83;21046;-43
2021/04/17 10:01:16;;;;;;;8.33;7.03;;;;;;;6.98;86.63;101105.92;1718414;83;20935;-43
2021/04/17 10:03:57;;;;;;;11.25;7.03;;;;;;;7.03;86.18;101109.38;1719756;83;21378;-43
2021/04/17 10:06:33;;;;;;;12.43;7.53;;;;;;;7.12;86.05;101103.44;1695576;83;21042;-42
2021/04/17 10:09:15;;;;;;;8.78;6.67;;;;;;;7.24;85.65;101103.94;1719637;83;21556;-42
2021/04/17 10:11:44;;;;;;;10.35;7.35;;;;;;;7.40;85.56;101107.89;1719665;83;21034;-42
2021/04/17 10:14:13;;;;;;;31.40;23.50;;;;;;;7.60;85.17;101106.28;1719706;83;21121;-42
2021/04/17 10:16:46;;;;;;;14.70;11.50;;;;;;;7.80;84.50;101111.07;1719653;83;21441;-42
2021/04/17 10:19:16;;;;;;;8.13;6.10;;;;;;;8.07;84.45;101110.72;1719563;83;20947;-42
2021/04/17 10:21:47;;;;;;;6.47;5.80;;;;;;;8.20;82.61;101106.00;1719724;83;21484;-43
2021/04/17 10:24:32;;;;;;;6.75;6.05;;;;;;;8.34;81.82;101108.19;1693165;83;21041;-42
2021/04/17 10:27:08;;;;;;;13.88;6.70;;;;;;;8.45;81.21;101109.48;1719738;82;20990;-41
2021/04/17 10:29:48;;;;;;;6.87;6.17;;;;;;;8.62;80.65;101109.53;1719736;83;21571;-42
2021/04/17 10:32:23;;;;;;;7.92;6.10;;;;;;;8.71;79.62;101116.41;1719607;83;20998;-43
2021/04/17 10:35:10;;;;;;;9.38;6.47;;;;;;;8.79;78.76;101115.13;1693167;83;20970;-43
2021/04/17 10:37:47;;;;;;;7.08;5.40;;;;;;;8.76;77.94;101117.72;1719749;83;21054;-43
2021/04/17 10:40:17;;;;;;;8.20;5.22;;;;;;;8.74;77.42;101115.56;1719693;83;21014;-43
2021/04/17 10:42:54;;;;;;;6.62;5.92;;;;;;;8.85;77.73;101111.24;1719660;83;21443;-42
2021/04/17 10:45:34;;;;;;;7.70;5.72;;;;;;;9.22;77.86;101115.91;1719610;83;21050;-44
2021/04/17 10:48:06;;;;;;;5.92;5.30;;;;;;;9.71;76.08;101109.29;1719767;83;21580;-43
2021/04/17 10:50:37;;;;;;;5.53;5.03;;;;;;;10.03;74.32;101113.46;1719121;83;21018;-43
2021/04/17 10:53:14;;;;;;;5.20;4.70;;;;;;;10.19;72.93;101109.05;1719601;83;21007;-43
2021/04/17 10:55:46;;;;;;;5.28;4.87;;;;;;;10.23;71.65;101111.20;1719641;83;21042;-43
2021/04/17 10:58:34;;;;;;;6.22;5.62;;;;;;;10.13;71.52;101113.39;1719648;83;21645;-44
2021/04/17 11:01:11;;;;;;;5.53;5.12;;;;;;;9.97;71.24;101114.77;1719677;83;20995;-43
2021/04/17 11:03:50;;;;;;;4.85;4.45;;;;;;;9.68;71.81;101115.77;1719600;83;20963;-43
2021/04/17 11:06:32;;;;;;;6.08;5.58;;;;;;;9.55;72.21;101117.98;1719665;83;21082;-43
2021/04/17 11:09:19;;;;;;;5.33;4.92;;;;;;;9.47;72.39;101125.77;1719780;83;21647;-42
2021/04/17 11:11:54;;;;;;;4.72;4.37;;;;;;;9.47;72.61;101116.72;1719515;83;21654;-42
2021/04/17 11:14:26;;;;;;;4.95;4.55;;;;;;;9.60;72.63;101114.95;1719668;83;21018;-42
2021/04/17 11:16:56;;;;;;;4.95;4.55;;;;;;;9.71;71.75;101120.92;1719645;83;21011;-43
2021/04/17 11:19:30;;;;;;;5.78;5.08;;;;;;;9.84;70.57;101114.42;1719690;82;21537;-43
2021/04/17 11:22:10;;;;;;;5.65;5.10;;;;;;;9.90;70.04;101120.84;1719657;83;21277;-42
2021/04/17 11:24:41;;;;;;;5.00;4.62;;;;;;;9.92;70.09;101119.98;1719599;83;21077;-43
2021/04/17 11:27:08;;;;;;;4.92;4.53;;;;;;;9.99;70.37;101116.94;1719720;82;21570;-42
2021/04/17 11:29:36;;;;;;;4.37;4.08;;;;;;;10.08;68.53;101122.92;1719594;83;21091;-43
2021/04/17 11:35:06;;;;;;;4.17;3.87;;;;;;;10.37;67.14;101114.98;1776920;79;23326;-43
2021/04/17 11:37:33;;;;;;;5.12;4.72;;;;;;;10.52;67.63;101117.05;1749440;82;20928;-41
2021/04/17 11:40:01;;;;;;;4.90;4.55;;;;;;;10.72;67.48;101112.58;1749450;82;21143;-42
2021/04/17 11:42:30;;;;;;;4.70;4.30;;;;;;;10.76;66.81;101111.67;1749327;82;21026;-42
2021/04/17 11:44:59;;;;;;;4.65;4.12;;;;;;;10.66;66.27;101110.46;1749511;82;20943;-43
2021/04/17 11:47:26;;;;;;;4.40;3.92;;;;;;;10.64;66.54;101106.61;1749459;82;21031;-43
2021/04/17 11:49:54;;;;;;;3.62;3.33;;;;;;;10.67;65.77;101113.47;1749419;82;21046;-42